Eastover, SC

11:55 PM EDT on March 26, 2015 (GMT -0400)
Berkeley Forest Subdivision | | Change Station
CLOSE
Current Station
Personal Weather Station
Location: Columbia, SC
Elevation: 215 ft
Nearby Weather Stations

Elev 215 ft 33.96 °N, 80.90 °W | Updated 8 seconds ago

Overcast
Overcast
67.1 °F
Feels Like 67.1 °F
N
2.0
Wind Variable Wind from SSW
Gusts 2.0 mph

Today
High -- | Low -- °F
--% Chance of Precip.
Yesterday
High -- | Low -- °F
Precip. -- in
7:18 AM 7:38 PM
Waxing Crescent, 48% visible
Pressure 29.78 in
Visibility 10.0 miles
Clouds Overcast 19000 ft
Dew Point 48 °F
Humidity 51%
Rainfall 0.00 in
Snow Depth Not available.
UV 0 out of 12
Pollen 10.90 out of 12
Air Quality Not available.
Flu Activity Not available.
METAR KMMT 270258Z 22003KT 10SM OVC190 20/14 A2977 RMK AO2A SLP082 T02010138 56005

More Conditions Fewer Conditions

Pressure 29.78 in
Visibility 10.0 miles
Clouds Overcast 19000 ft
Dew Point 48 °F
Humidity 51%
Rainfall 0.00 in
Snow Depth Not available.
UV 0 out of 12
Pollen 10.90 out of 12
Air Quality Not available.
Flu Activity Not available.
METAR KMMT 270258Z 22003KT 10SM OVC190 20/14 A2977 RMK AO2A SLP082 T02010138 56005

More Conditions Fewer Conditions

10-Day Weather Forecast

Almanac

Astronomy

Mar. 26, 2015 Rise Set
Actual Time
Civil Twilight
Nautical Twilight
Astronomical Twilight
Moon
Length of Visible Light
Length of Day
Tomorrow will be .
, % of the Moon is Illuminated

Today's Extremes

State Highs State Lows

Community

WunderPhotos

Upload Photos

1,808,703 photos uploaded!

WunderBlogs® & News

Nearby

Air Quality

  Air Quality AQ Index Pollutant
Not available.

Snow Depth

Station Depth Elevation

Earthquake Activity

City Distance Mag. Time & Date
Minimum magnitude displayed is 2.5.

Coastal Water Temperatures

Place Temperature

Stations

Nearby Weather Stations

Station Location Temp. Windchill Dew Point Humidity Wind Precip. Elev Updated Type